sensor_id;sensor_type;location;lat;lon;timestamp;temperature;humidity
69595;DHT22;56800;52.142;5.364;2023-02-24T00:01:51;3.50;79.60
69595;DHT22;56800;52.142;5.364;2023-02-24T00:04:19;3.50;79.50
69595;DHT22;56800;52.142;5.364;2023-02-24T00:06:47;3.50;79.50
69595;DHT22;56800;52.142;5.364;2023-02-24T00:09:17;3.50;79.50
69595;DHT22;56800;52.142;5.364;2023-02-24T00:11:47;3.50;79.50
69595;DHT22;56800;52.142;5.364;2023-02-24T00:14:15;3.50;79.40
69595;DHT22;56800;52.142;5.364;2023-02-24T00:16:42;3.60;79.50
69595;DHT22;56800;52.142;5.364;2023-02-24T00:19:14;3.50;79.30
69595;DHT22;56800;52.142;5.364;2023-02-24T00:21:42;3.60;79.40
69595;DHT22;56800;52.142;5.364;2023-02-24T00:24:09;3.50;79.30
69595;DHT22;56800;52.142;5.364;2023-02-24T00:26:37;3.50;79.30
69595;DHT22;56800;52.142;5.364;2023-02-24T00:29:06;3.50;79.30
69595;DHT22;56800;52.142;5.364;2023-02-24T00:31:33;3.50;79.30
69595;DHT22;56800;52.142;5.364;2023-02-24T00:34:01;3.50;79.10
69595;DHT22;56800;52.142;5.364;2023-02-24T00:36:29;3.50;79.20
69595;DHT22;56800;52.142;5.364;2023-02-24T00:38:57;3.50;79.10
69595;DHT22;56800;52.142;5.364;2023-02-24T00:41:30;3.50;79.10
69595;DHT22;56800;52.142;5.364;2023-02-24T00:43:59;3.40;79.00
69595;DHT22;56800;52.142;5.364;2023-02-24T00:46:42;3.40;79.00
69595;DHT22;56800;52.142;5.364;2023-02-24T00:49:13;3.40;78.90
69595;DHT22;56800;52.142;5.364;2023-02-24T00:51:45;3.40;78.90
69595;DHT22;56800;52.142;5.364;2023-02-24T00:54:12;3.30;78.90
69595;DHT22;56800;52.142;5.364;2023-02-24T00:56:45;3.40;78.90
69595;DHT22;56800;52.142;5.364;2023-02-24T00:59:14;3.30;79.10
69595;DHT22;56800;52.142;5.364;2023-02-24T01:01:42;3.30;78.90
69595;DHT22;56800;52.142;5.364;2023-02-24T01:04:12;3.30;78.90
69595;DHT22;56800;52.142;5.364;2023-02-24T01:06:44;3.30;78.80
69595;DHT22;56800;52.142;5.364;2023-02-24T01:09:13;3.30;78.80
69595;DHT22;56800;52.142;5.364;2023-02-24T01:11:42;3.30;78.80
69595;DHT22;56800;52.142;5.364;2023-02-24T01:14:30;3.40;78.80
69595;DHT22;56800;52.142;5.364;2023-02-24T01:16:58;3.40;78.70
69595;DHT22;56800;52.142;5.364;2023-02-24T01:19:28;3.40;78.70
69595;DHT22;56800;52.142;5.364;2023-02-24T01:21:58;3.30;78.50
69595;DHT22;56800;52.142;5.364;2023-02-24T01:24:24;3.40;78.50
69595;DHT22;56800;52.142;5.364;2023-02-24T01:26:52;3.30;78.40
69595;DHT22;56800;52.142;5.364;2023-02-24T01:29:19;3.30;78.30
69595;DHT22;56800;52.142;5.364;2023-02-24T01:31:48;3.30;78.30
69595;DHT22;56800;52.142;5.364;2023-02-24T01:34:16;3.30;78.20
69595;DHT22;56800;52.142;5.364;2023-02-24T01:36:43;3.30;78.20
69595;DHT22;56800;52.142;5.364;2023-02-24T01:39:11;3.20;78.10
69595;DHT22;56800;52.142;5.364;2023-02-24T01:41:41;3.20;78.10
69595;DHT22;56800;52.142;5.364;2023-02-24T01:46:41;3.20;78.20
69595;DHT22;56800;52.142;5.364;2023-02-24T01:49:24;3.20;78.10
69595;DHT22;56800;52.142;5.364;2023-02-24T01:52:09;3.20;78.00
69595;DHT22;56800;52.142;5.364;2023-02-24T01:54:54;3.10;78.00
69595;DHT22;56800;52.142;5.364;2023-02-24T01:57:24;3.10;78.00
69595;DHT22;56800;52.142;5.364;2023-02-24T01:59:52;3.10;77.90
69595;DHT22;56800;52.142;5.364;2023-02-24T02:02:21;3.10;77.90
69595;DHT22;56800;52.142;5.364;2023-02-24T02:04:54;3.00;77.70
69595;DHT22;56800;52.142;5.364;2023-02-24T02:07:23;3.00;77.60
69595;DHT22;56800;52.142;5.364;2023-02-24T02:09:52;3.00;77.70
69595;DHT22;56800;52.142;5.364;2023-02-24T02:12:21;2.90;77.70
69595;DHT22;56800;52.142;5.364;2023-02-24T02:14:51;2.90;77.80
69595;DHT22;56800;52.142;5.364;2023-02-24T02:23:19;2.80;77.80
69595;DHT22;56800;52.142;5.364;2023-02-24T02:37:14;2.80;77.80
69595;DHT22;56800;52.142;5.364;2023-02-24T02:42:45;2.70;77.90
69595;DHT22;56800;52.142;5.364;2023-02-24T02:45:47;2.70;77.90
69595;DHT22;56800;52.142;5.364;2023-02-24T02:48:12;2.70;78.00
69595;DHT22;56800;52.142;5.364;2023-02-24T02:53:25;2.60;77.90
69595;DHT22;56800;52.142;5.364;2023-02-24T02:56:09;2.60;78.00
69595;DHT22;56800;52.142;5.364;2023-02-24T02:58:41;2.60;78.00
69595;DHT22;56800;52.142;5.364;2023-02-24T03:01:14;2.60;78.00
69595;DHT22;56800;52.142;5.364;2023-02-24T03:03:44;2.50;77.90
69595;DHT22;56800;52.142;5.364;2023-02-24T03:06:26;2.50;78.00
69595;DHT22;56800;52.142;5.364;2023-02-24T03:09:24;2.50;78.00
69595;DHT22;56800;52.142;5.364;2023-02-24T03:11:55;2.50;78.10
69595;DHT22;56800;52.142;5.364;2023-02-24T03:14:31;2.50;78.80
69595;DHT22;56800;52.142;5.364;2023-02-24T03:17:02;2.50;78.00
69595;DHT22;56800;52.142;5.364;2023-02-24T03:19:32;2.50;78.10
69595;DHT22;56800;52.142;5.364;2023-02-24T03:22:12;2.50;78.20
69595;DHT22;56800;52.142;5.364;2023-02-24T03:24:40;2.50;78.30
69595;DHT22;56800;52.142;5.364;2023-02-24T03:27:12;2.40;78.20
69595;DHT22;56800;52.142;5.364;2023-02-24T03:29:44;2.50;78.30
69595;DHT22;56800;52.142;5.364;2023-02-24T03:32:28;2.50;78.30
69595;DHT22;56800;52.142;5.364;2023-02-24T03:35:05;2.50;78.40
69595;DHT22;56800;52.142;5.364;2023-02-24T03:37:34;2.40;78.30
69595;DHT22;56800;52.142;5.364;2023-02-24T03:40:07;2.50;78.30
69595;DHT22;56800;52.142;5.364;2023-02-24T03:43:02;2.50;78.30
69595;DHT22;56800;52.142;5.364;2023-02-24T03:45:25;2.50;78.40
69595;DHT22;56800;52.142;5.364;2023-02-24T03:47:53;2.50;78.40
69595;DHT22;56800;52.142;5.364;2023-02-24T03:50:21;2.50;78.40
69595;DHT22;56800;52.142;5.364;2023-02-24T03:53:06;2.50;78.40
69595;DHT22;56800;52.142;5.364;2023-02-24T03:58:19;2.50;78.30
69595;DHT22;56800;52.142;5.364;2023-02-24T04:04:00;2.50;78.20
69595;DHT22;56800;52.142;5.364;2023-02-24T04:11:52;2.50;78.30
69595;DHT22;56800;52.142;5.364;2023-02-24T04:14:27;2.50;78.30
69595;DHT22;56800;52.142;5.364;2023-02-24T04:17:32;2.50;78.30
69595;DHT22;56800;52.142;5.364;2023-02-24T04:19:53;2.50;78.30
69595;DHT22;56800;52.142;5.364;2023-02-24T04:22:22;2.50;78.20
69595;DHT22;56800;52.142;5.364;2023-02-24T04:24:54;2.60;78.30
69595;DHT22;56800;52.142;5.364;2023-02-24T04:27:22;2.60;78.30
69595;DHT22;56800;52.142;5.364;2023-02-24T04:29:52;2.60;78.40
69595;DHT22;56800;52.142;5.364;2023-02-24T04:32:25;2.60;78.40
69595;DHT22;56800;52.142;5.364;2023-02-24T04:35:00;2.60;78.40
69595;DHT22;56800;52.142;5.364;2023-02-24T04:37:27;2.70;78.50
69595;DHT22;56800;52.142;5.364;2023-02-24T04:39:59;2.70;78.40
69595;DHT22;56800;52.142;5.364;2023-02-24T04:42:27;2.80;78.30
69595;DHT22;56800;52.142;5.364;2023-02-24T04:44:54;2.80;78.30
69595;DHT22;56800;52.142;5.364;2023-02-24T04:47:23;2.80;78.20
69595;DHT22;56800;52.142;5.364;2023-02-24T04:49:54;2.80;78.10
69595;DHT22;56800;52.142;5.364;2023-02-24T04:52:20;2.90;78.10
69595;DHT22;56800;52.142;5.364;2023-02-24T04:54:47;2.80;78.10
69595;DHT22;56800;52.142;5.364;2023-02-24T04:57:14;2.90;78.00
69595;DHT22;56800;52.142;5.364;2023-02-24T04:59:41;2.90;78.00
69595;DHT22;56800;52.142;5.364;2023-02-24T05:02:07;2.90;77.90
69595;DHT22;56800;52.142;5.364;2023-02-24T05:04:35;2.90;77.90
69595;DHT22;56800;52.142;5.364;2023-02-24T05:07:04;2.90;77.90
69595;DHT22;56800;52.142;5.364;2023-02-24T05:09:31;2.90;77.90
69595;DHT22;56800;52.142;5.364;2023-02-24T05:11:57;2.90;77.80
69595;DHT22;56800;52.142;5.364;2023-02-24T05:14:25;3.00;77.80
69595;DHT22;56800;52.142;5.364;2023-02-24T05:16:52;2.90;77.80
69595;DHT22;56800;52.142;5.364;2023-02-24T05:19:26;2.90;77.80
69595;DHT22;56800;52.142;5.364;2023-02-24T05:22:11;3.00;77.70
69595;DHT22;56800;52.142;5.364;2023-02-24T05:24:39;3.00;77.70
69595;DHT22;56800;52.142;5.364;2023-02-24T05:27:06;3.00;77.70
69595;DHT22;56800;52.142;5.364;2023-02-24T05:29:34;3.00;77.70
69595;DHT22;56800;52.142;5.364;2023-02-24T05:32:02;3.00;77.80
69595;DHT22;56800;52.142;5.364;2023-02-24T05:34:31;3.00;77.60
69595;DHT22;56800;52.142;5.364;2023-02-24T05:37:00;3.00;77.60
69595;DHT22;56800;52.142;5.364;2023-02-24T05:39:27;3.00;77.60
69595;DHT22;56800;52.142;5.364;2023-02-24T05:41:54;3.00;77.50
69595;DHT22;56800;52.142;5.364;2023-02-24T05:44:24;3.00;77.50
69595;DHT22;56800;52.142;5.364;2023-02-24T05:46:54;3.10;77.60
69595;DHT22;56800;52.142;5.364;2023-02-24T05:49:29;3.00;77.50
69595;DHT22;56800;52.142;5.364;2023-02-24T05:52:01;3.10;77.60
69595;DHT22;56800;52.142;5.364;2023-02-24T05:54:31;3.10;77.60
69595;DHT22;56800;52.142;5.364;2023-02-24T05:57:03;3.10;77.60
69595;DHT22;56800;52.142;5.364;2023-02-24T05:59:30;3.10;77.60
69595;DHT22;56800;52.142;5.364;2023-02-24T06:02:02;3.10;77.50
69595;DHT22;56800;52.142;5.364;2023-02-24T06:04:33;3.10;77.50
69595;DHT22;56800;52.142;5.364;2023-02-24T06:07:16;3.10;77.50
69595;DHT22;56800;52.142;5.364;2023-02-24T06:09:48;3.10;77.50
69595;DHT22;56800;52.142;5.364;2023-02-24T06:12:17;3.20;77.40
69595;DHT22;56800;52.142;5.364;2023-02-24T06:14:43;3.10;77.40
69595;DHT22;56800;52.142;5.364;2023-02-24T06:17:10;3.20;77.50
69595;DHT22;56800;52.142;5.364;2023-02-24T06:19:37;3.20;77.50
69595;DHT22;56800;52.142;5.364;2023-02-24T06:22:04;3.20;77.50
69595;DHT22;56800;52.142;5.364;2023-02-24T06:24:36;3.20;77.40
69595;DHT22;56800;52.142;5.364;2023-02-24T06:27:04;3.30;77.50
69595;DHT22;56800;52.142;5.364;2023-02-24T06:29:36;3.30;77.50
69595;DHT22;56800;52.142;5.364;2023-02-24T06:32:03;3.30;77.40
69595;DHT22;56800;52.142;5.364;2023-02-24T06:34:37;3.30;77.40
69595;DHT22;56800;52.142;5.364;2023-02-24T06:37:06;3.40;77.40
69595;DHT22;56800;52.142;5.364;2023-02-24T06:39:33;3.40;77.50
69595;DHT22;56800;52.142;5.364;2023-02-24T06:42:03;3.40;77.40
69595;DHT22;56800;52.142;5.364;2023-02-24T06:44:31;3.40;77.40
69595;DHT22;56800;52.142;5.364;2023-02-24T06:46:59;3.40;77.40
69595;DHT22;56800;52.142;5.364;2023-02-24T06:49:26;3.40;77.30
69595;DHT22;56800;52.142;5.364;2023-02-24T06:51:53;3.40;77.20
69595;DHT22;56800;52.142;5.364;2023-02-24T06:54:24;3.40;77.30
69595;DHT22;56800;52.142;5.364;2023-02-24T06:56:54;3.50;77.30
69595;DHT22;56800;52.142;5.364;2023-02-24T06:59:20;3.50;77.30
69595;DHT22;56800;52.142;5.364;2023-02-24T07:01:48;3.50;77.30
69595;DHT22;56800;52.142;5.364;2023-02-24T07:04:15;3.50;77.30
69595;DHT22;56800;52.142;5.364;2023-02-24T07:06:44;3.60;77.30
69595;DHT22;56800;52.142;5.364;2023-02-24T07:09:13;3.60;77.30
69595;DHT22;56800;52.142;5.364;2023-02-24T07:11:43;3.60;77.40
69595;DHT22;56800;52.142;5.364;2023-02-24T07:14:12;3.60;77.40
69595;DHT22;56800;52.142;5.364;2023-02-24T07:16:40;3.70;77.50
69595;DHT22;56800;52.142;5.364;2023-02-24T07:19:13;3.70;77.40
69595;DHT22;56800;52.142;5.364;2023-02-24T07:21:43;3.70;77.50
69595;DHT22;56800;52.142;5.364;2023-02-24T07:24:20;3.80;77.60
69595;DHT22;56800;52.142;5.364;2023-02-24T07:27:07;3.80;77.50
69595;DHT22;56800;52.142;5.364;2023-02-24T07:29:35;3.80;77.50
69595;DHT22;56800;52.142;5.364;2023-02-24T07:32:05;3.90;77.60
69595;DHT22;56800;52.142;5.364;2023-02-24T07:34:32;3.90;77.50
69595;DHT22;56800;52.142;5.364;2023-02-24T07:37:00;3.90;77.50
69595;DHT22;56800;52.142;5.364;2023-02-24T07:39:34;3.90;77.60
69595;DHT22;56800;52.142;5.364;2023-02-24T07:42:02;4.00;77.70
69595;DHT22;56800;52.142;5.364;2023-02-24T07:44:29;4.10;77.70
69595;DHT22;56800;52.142;5.364;2023-02-24T07:46:56;4.10;77.70
69595;DHT22;56800;52.142;5.364;2023-02-24T07:49:25;4.10;77.70
69595;DHT22;56800;52.142;5.364;2023-02-24T07:51:55;4.20;77.80
69595;DHT22;56800;52.142;5.364;2023-02-24T07:54:24;4.20;77.70
69595;DHT22;56800;52.142;5.364;2023-02-24T07:56:52;4.20;77.80
69595;DHT22;56800;52.142;5.364;2023-02-24T07:59:25;4.20;77.80
69595;DHT22;56800;52.142;5.364;2023-02-24T08:01:53;4.30;77.90
69595;DHT22;56800;52.142;5.364;2023-02-24T08:04:28;4.30;77.90
69595;DHT22;56800;52.142;5.364;2023-02-24T08:06:56;4.40;78.00
69595;DHT22;56800;52.142;5.364;2023-02-24T08:09:26;4.40;78.00
69595;DHT22;56800;52.142;5.364;2023-02-24T08:12:20;4.40;78.10
69595;DHT22;56800;52.142;5.364;2023-02-24T08:14:50;4.50;78.20
69595;DHT22;56800;52.142;5.364;2023-02-24T08:17:19;4.50;78.30
69595;DHT22;56800;52.142;5.364;2023-02-24T08:19:47;4.60;78.30
69595;DHT22;56800;52.142;5.364;2023-02-24T08:22:15;4.60;78.40
69595;DHT22;56800;52.142;5.364;2023-02-24T08:24:46;4.60;78.50
69595;DHT22;56800;52.142;5.364;2023-02-24T08:27:24;4.70;78.50
69595;DHT22;56800;52.142;5.364;2023-02-24T08:29:53;4.80;78.70
69595;DHT22;56800;52.142;5.364;2023-02-24T08:32:36;4.80;78.70
69595;DHT22;56800;52.142;5.364;2023-02-24T08:35:05;4.90;78.80
69595;DHT22;56800;52.142;5.364;2023-02-24T08:37:33;4.90;78.70
69595;DHT22;56800;52.142;5.364;2023-02-24T08:40:09;5.00;78.80
69595;DHT22;56800;52.142;5.364;2023-02-24T08:43:05;5.00;78.80
69595;DHT22;56800;52.142;5.364;2023-02-24T08:48:37;5.10;78.80
69595;DHT22;56800;52.142;5.364;2023-02-24T08:51:17;5.10;78.80
69595;DHT22;56800;52.142;5.364;2023-02-24T08:53:51;5.20;78.90
69595;DHT22;56800;52.142;5.364;2023-02-24T08:56:27;5.20;78.90
69595;DHT22;56800;52.142;5.364;2023-02-24T08:58:56;5.20;79.00
69595;DHT22;56800;52.142;5.364;2023-02-24T09:01:28;5.20;79.00
69595;DHT22;56800;52.142;5.364;2023-02-24T09:04:12;5.30;79.20
69595;DHT22;56800;52.142;5.364;2023-02-24T09:06:47;5.30;79.20
69595;DHT22;56800;52.142;5.364;2023-02-24T09:09:18;5.40;79.20
69595;DHT22;56800;52.142;5.364;2023-02-24T09:11:54;5.40;79.30
69595;DHT22;56800;52.142;5.364;2023-02-24T09:14:32;5.40;79.30
69595;DHT22;56800;52.142;5.364;2023-02-24T09:17:06;5.50;79.30
69595;DHT22;56800;52.142;5.364;2023-02-24T09:22:07;5.60;79.30
69595;DHT22;56800;52.142;5.364;2023-02-24T09:24:47;5.60;79.50
69595;DHT22;56800;52.142;5.364;2023-02-24T09:27:16;5.70;79.60
69595;DHT22;56800;52.142;5.364;2023-02-24T09:29:43;5.80;79.80
69595;DHT22;56800;52.142;5.364;2023-02-24T09:32:15;5.90;79.90
69595;DHT22;56800;52.142;5.364;2023-02-24T09:34:42;5.90;79.80
69595;DHT22;56800;52.142;5.364;2023-02-24T09:37:11;5.90;79.80
69595;DHT22;56800;52.142;5.364;2023-02-24T09:39:51;6.00;80.00
69595;DHT22;56800;52.142;5.364;2023-02-24T09:42:31;6.00;80.00
69595;DHT22;56800;52.142;5.364;2023-02-24T09:45:19;6.10;80.10
69595;DHT22;56800;52.142;5.364;2023-02-24T09:48:08;6.10;80.20
69595;DHT22;56800;52.142;5.364;2023-02-24T09:50:37;6.10;80.20
69595;DHT22;56800;52.142;5.364;2023-02-24T09:53:33;6.10;80.20
69595;DHT22;56800;52.142;5.364;2023-02-24T09:56:24;6.20;80.30
69595;DHT22;56800;52.142;5.364;2023-02-24T10:01:49;6.20;80.60
69595;DHT22;56800;52.142;5.364;2023-02-24T10:04:44;6.20;80.80
69595;DHT22;56800;52.142;5.364;2023-02-24T10:07:29;6.20;80.80
69595;DHT22;56800;52.142;5.364;2023-02-24T10:10:15;6.20;80.80
69595;DHT22;56800;52.142;5.364;2023-02-24T10:13:04;6.20;81.00
69595;DHT22;56800;52.142;5.364;2023-02-24T10:15:43;6.30;81.10
69595;DHT22;56800;52.142;5.364;2023-02-24T10:21:19;6.30;81.40
69595;DHT22;56800;52.142;5.364;2023-02-24T10:26:36;6.30;81.30
69595;DHT22;56800;52.142;5.364;2023-02-24T10:32:25;6.30;81.50
69595;DHT22;56800;52.142;5.364;2023-02-24T10:35:00;6.40;81.70
69595;DHT22;56800;52.142;5.364;2023-02-24T10:37:27;6.40;81.80
69595;DHT22;56800;52.142;5.364;2023-02-24T10:39:57;6.30;81.80
69595;DHT22;56800;52.142;5.364;2023-02-24T10:42:30;6.30;81.80
69595;DHT22;56800;52.142;5.364;2023-02-24T10:45:11;6.40;82.00
69595;DHT22;56800;52.142;5.364;2023-02-24T10:47:49;6.40;82.10
69595;DHT22;56800;52.142;5.364;2023-02-24T10:52:52;6.40;82.20
69595;DHT22;56800;52.142;5.364;2023-02-24T10:55:25;6.40;82.30
69595;DHT22;56800;52.142;5.364;2023-02-24T10:58:05;6.40;82.40
69595;DHT22;56800;52.142;5.364;2023-02-24T11:00:45;6.50;82.40
69595;DHT22;56800;52.142;5.364;2023-02-24T11:03:31;6.50;82.50
69595;DHT22;56800;52.142;5.364;2023-02-24T11:06:04;6.50;82.60
69595;DHT22;56800;52.142;5.364;2023-02-24T11:08:35;6.50;82.70
69595;DHT22;56800;52.142;5.364;2023-02-24T11:11:13;6.50;82.80
69595;DHT22;56800;52.142;5.364;2023-02-24T11:14:01;6.60;82.90
69595;DHT22;56800;52.142;5.364;2023-02-24T11:16:52;6.60;82.90
69595;DHT22;56800;52.142;5.364;2023-02-24T11:20:00;6.60;83.00
69595;DHT22;56800;52.142;5.364;2023-02-24T11:22:39;6.60;83.20
69595;DHT22;56800;52.142;5.364;2023-02-24T11:25:20;6.70;83.30
69595;DHT22;56800;52.142;5.364;2023-02-24T11:27:48;6.80;83.50
69595;DHT22;56800;52.142;5.364;2023-02-24T11:38:33;6.90;83.60
69595;DHT22;56800;52.142;5.364;2023-02-24T11:41:24;6.90;83.70
69595;DHT22;56800;52.142;5.364;2023-02-24T11:43:58;7.00;83.80
69595;DHT22;56800;52.142;5.364;2023-02-24T11:46:55;7.00;83.80
69595;DHT22;56800;52.142;5.364;2023-02-24T11:49:50;7.00;83.80
69595;DHT22;56800;52.142;5.364;2023-02-24T11:52:29;7.10;83.90
69595;DHT22;56800;52.142;5.364;2023-02-24T11:54:58;7.10;83.90
69595;DHT22;56800;52.142;5.364;2023-02-24T11:57:37;7.20;84.00
69595;DHT22;56800;52.142;5.364;2023-02-24T12:00:17;7.20;83.90
69595;DHT22;56800;52.142;5.364;2023-02-24T12:02:53;7.30;84.00
69595;DHT22;56800;52.142;5.364;2023-02-24T12:05:33;7.30;84.20
69595;DHT22;56800;52.142;5.364;2023-02-24T12:08:08;7.40;84.60
69595;DHT22;56800;52.142;5.364;2023-02-24T12:10:50;7.60;85.80
69595;DHT22;56800;52.142;5.364;2023-02-24T12:13:31;7.80;84.90
69595;DHT22;56800;52.142;5.364;2023-02-24T12:16:10;7.90;84.70
69595;DHT22;56800;52.142;5.364;2023-02-24T12:18:49;8.10;84.90
69595;DHT22;56800;52.142;5.364;2023-02-24T12:21:21;8.20;84.60
69595;DHT22;56800;52.142;5.364;2023-02-24T12:23:51;8.40;84.80
69595;DHT22;56800;52.142;5.364;2023-02-24T12:29:32;8.60;83.50
69595;DHT22;56800;52.142;5.364;2023-02-24T12:32:18;8.60;83.20
69595;DHT22;56800;52.142;5.364;2023-02-24T12:35:14;8.60;83.00
69595;DHT22;56800;52.142;5.364;2023-02-24T12:37:51;8.60;83.20
69595;DHT22;56800;52.142;5.364;2023-02-24T12:43:09;8.70;83.40
69595;DHT22;56800;52.142;5.364;2023-02-24T12:45:59;8.80;83.30
69595;DHT22;56800;52.142;5.364;2023-02-24T12:51:55;9.30;84.40
69595;DHT22;56800;52.142;5.364;2023-02-24T12:54:54;9.70;84.70
69595;DHT22;56800;52.142;5.364;2023-02-24T12:57:30;10.10;83.90
69595;DHT22;56800;52.142;5.364;2023-02-24T13:00:08;10.30;82.30
69595;DHT22;56800;52.142;5.364;2023-02-24T13:05:38;10.30;79.90
69595;DHT22;56800;52.142;5.364;2023-02-24T13:08:38;10.20;79.60
69595;DHT22;56800;52.142;5.364;2023-02-24T13:11:35;10.10;79.20
69595;DHT22;56800;52.142;5.364;2023-02-24T13:14:25;10.00;79.00
69595;DHT22;56800;52.142;5.364;2023-02-24T13:17:25;9.80;78.70
69595;DHT22;56800;52.142;5.364;2023-02-24T13:19:55;9.70;79.40
69595;DHT22;56800;52.142;5.364;2023-02-24T13:22:27;9.70;79.10
69595;DHT22;56800;52.142;5.364;2023-02-24T13:27:39;9.90;79.60
69595;DHT22;56800;52.142;5.364;2023-02-24T13:32:46;10.00;78.20
69595;DHT22;56800;52.142;5.364;2023-02-24T13:37:51;9.90;77.60
69595;DHT22;56800;52.142;5.364;2023-02-24T13:45:35;9.40;76.40
69595;DHT22;56800;52.142;5.364;2023-02-24T13:51:18;8.80;76.50
69595;DHT22;56800;52.142;5.364;2023-02-24T13:54:15;8.60;77.00
69595;DHT22;56800;52.142;5.364;2023-02-24T13:59:20;8.40;78.00
69595;DHT22;56800;52.142;5.364;2023-02-24T14:01:59;8.40;78.40
69595;DHT22;56800;52.142;5.364;2023-02-24T14:04:31;8.40;78.70
69595;DHT22;56800;52.142;5.364;2023-02-24T14:07:08;8.50;79.00
69595;DHT22;56800;52.142;5.364;2023-02-24T14:09:45;8.60;78.90
69595;DHT22;56800;52.142;5.364;2023-02-24T14:12:17;8.70;79.00
69595;DHT22;56800;52.142;5.364;2023-02-24T14:14:45;8.70;79.30
69595;DHT22;56800;52.142;5.364;2023-02-24T14:17:27;8.70;79.10
69595;DHT22;56800;52.142;5.364;2023-02-24T14:22:59;8.80;79.10
69595;DHT22;56800;52.142;5.364;2023-02-24T14:25:29;8.90;79.20
69595;DHT22;56800;52.142;5.364;2023-02-24T14:28:00;8.80;78.80
69595;DHT22;56800;52.142;5.364;2023-02-24T14:30:34;8.80;78.60
69595;DHT22;56800;52.142;5.364;2023-02-24T14:33:02;8.70;78.60
69595;DHT22;56800;52.142;5.364;2023-02-24T14:35:35;8.70;78.60
69595;DHT22;56800;52.142;5.364;2023-02-24T14:38:04;8.70;78.60
69595;DHT22;56800;52.142;5.364;2023-02-24T14:40:31;8.60;78.50
69595;DHT22;56800;52.142;5.364;2023-02-24T14:42:58;8.60;78.50
69595;DHT22;56800;52.142;5.364;2023-02-24T14:45:27;8.60;78.50
69595;DHT22;56800;52.142;5.364;2023-02-24T14:47:55;8.50;78.20
69595;DHT22;56800;52.142;5.364;2023-02-24T14:50:31;8.50;78.00
69595;DHT22;56800;52.142;5.364;2023-02-24T14:53:06;8.40;77.90
69595;DHT22;56800;52.142;5.364;2023-02-24T14:55:40;8.40;77.90
69595;DHT22;56800;52.142;5.364;2023-02-24T15:00:47;8.30;77.50
69595;DHT22;56800;52.142;5.364;2023-02-24T15:05:59;8.10;77.10
69595;DHT22;56800;52.142;5.364;2023-02-24T15:08:43;8.10;77.20
69595;DHT22;56800;52.142;5.364;2023-02-24T15:13:44;8.10;77.10
69595;DHT22;56800;52.142;5.364;2023-02-24T15:16:16;8.00;77.10
69595;DHT22;56800;52.142;5.364;2023-02-24T15:18:49;8.00;77.40
69595;DHT22;56800;52.142;5.364;2023-02-24T15:21:20;8.10;77.60
69595;DHT22;56800;52.142;5.364;2023-02-24T15:23:47;8.10;77.60
69595;DHT22;56800;52.142;5.364;2023-02-24T15:26:29;8.10;77.40
69595;DHT22;56800;52.142;5.364;2023-02-24T15:29:40;8.10;77.40
69595;DHT22;56800;52.142;5.364;2023-02-24T15:31:49;8.10;77.30
69595;DHT22;56800;52.142;5.364;2023-02-24T15:34:26;8.10;77.20
69595;DHT22;56800;52.142;5.364;2023-02-24T15:37:00;8.00;77.20
69595;DHT22;56800;52.142;5.364;2023-02-24T15:39:30;8.00;77.30
69595;DHT22;56800;52.142;5.364;2023-02-24T15:42:26;8.00;77.40
69595;DHT22;56800;52.142;5.364;2023-02-24T15:44:56;8.00;77.50
69595;DHT22;56800;52.142;5.364;2023-02-24T15:47:26;8.10;78.00
69595;DHT22;56800;52.142;5.364;2023-02-24T15:49:53;8.10;77.30
69595;DHT22;56800;52.142;5.364;2023-02-24T15:52:26;8.00;77.20
69595;DHT22;56800;52.142;5.364;2023-02-24T15:54:54;8.10;77.10
69595;DHT22;56800;52.142;5.364;2023-02-24T15:57:22;8.10;77.10
69595;DHT22;56800;52.142;5.364;2023-02-24T15:59:48;8.00;77.00
69595;DHT22;56800;52.142;5.364;2023-02-24T16:02:18;8.00;76.90
69595;DHT22;56800;52.142;5.364;2023-02-24T16:04:47;8.00;76.90
69595;DHT22;56800;52.142;5.364;2023-02-24T16:07:20;7.90;76.90
69595;DHT22;56800;52.142;5.364;2023-02-24T16:09:49;7.90;77.10
69595;DHT22;56800;52.142;5.364;2023-02-24T16:12:34;7.90;77.40
69595;DHT22;56800;52.142;5.364;2023-02-24T16:15:03;7.90;77.50
69595;DHT22;56800;52.142;5.364;2023-02-24T16:20:01;7.80;77.50
69595;DHT22;56800;52.142;5.364;2023-02-24T16:22:28;7.80;77.40
69595;DHT22;56800;52.142;5.364;2023-02-24T16:24:55;7.80;77.40
69595;DHT22;56800;52.142;5.364;2023-02-24T16:27:22;7.80;77.40
69595;DHT22;56800;52.142;5.364;2023-02-24T16:29:51;7.80;77.30
69595;DHT22;56800;52.142;5.364;2023-02-24T16:32:18;7.80;77.40
69595;DHT22;56800;52.142;5.364;2023-02-24T16:34:49;7.70;77.40
69595;DHT22;56800;52.142;5.364;2023-02-24T16:37:21;7.70;77.60
69595;DHT22;56800;52.142;5.364;2023-02-24T16:39:49;7.70;77.80
69595;DHT22;56800;52.142;5.364;2023-02-24T16:42:16;7.70;77.80
69595;DHT22;56800;52.142;5.364;2023-02-24T16:44:43;7.60;77.60
69595;DHT22;56800;52.142;5.364;2023-02-24T16:47:20;7.60;77.70
69595;DHT22;56800;52.142;5.364;2023-02-24T16:49:48;7.60;77.60
69595;DHT22;56800;52.142;5.364;2023-02-24T16:52:15;7.60;77.80
69595;DHT22;56800;52.142;5.364;2023-02-24T16:54:46;7.50;77.60
69595;DHT22;56800;52.142;5.364;2023-02-24T16:57:13;7.50;77.60
69595;DHT22;56800;52.142;5.364;2023-02-24T16:59:40;7.40;77.60
69595;DHT22;56800;52.142;5.364;2023-02-24T17:02:22;7.40;77.60
69595;DHT22;56800;52.142;5.364;2023-02-24T17:04:49;7.30;77.50
69595;DHT22;56800;52.142;5.364;2023-02-24T17:07:16;7.30;77.50
69595;DHT22;56800;52.142;5.364;2023-02-24T17:09:45;7.30;77.60
69595;DHT22;56800;52.142;5.364;2023-02-24T17:12:13;7.20;77.80
69595;DHT22;56800;52.142;5.364;2023-02-24T17:14:40;7.20;77.80
69595;DHT22;56800;52.142;5.364;2023-02-24T17:17:07;7.20;77.90
69595;DHT22;56800;52.142;5.364;2023-02-24T17:19:34;7.10;78.10
69595;DHT22;56800;52.142;5.364;2023-02-24T17:22:00;7.10;78.20
69595;DHT22;56800;52.142;5.364;2023-02-24T17:24:27;7.00;78.30
69595;DHT22;56800;52.142;5.364;2023-02-24T17:26:55;6.90;79.10
69595;DHT22;56800;52.142;5.364;2023-02-24T17:29:26;6.90;78.50
69595;DHT22;56800;52.142;5.364;2023-02-24T17:31:53;6.80;78.70
69595;DHT22;56800;52.142;5.364;2023-02-24T17:34:20;6.80;78.90
69595;DHT22;56800;52.142;5.364;2023-02-24T17:36:49;6.70;78.90
69595;DHT22;56800;52.142;5.364;2023-02-24T17:39:15;6.70;79.00
69595;DHT22;56800;52.142;5.364;2023-02-24T17:41:42;6.60;79.00
69595;DHT22;56800;52.142;5.364;2023-02-24T17:44:09;6.60;79.00
69595;DHT22;56800;52.142;5.364;2023-02-24T17:46:36;6.50;79.00
69595;DHT22;56800;52.142;5.364;2023-02-24T17:49:03;6.50;79.00
69595;DHT22;56800;52.142;5.364;2023-02-24T17:51:30;6.50;79.00
69595;DHT22;56800;52.142;5.364;2023-02-24T17:53:57;6.40;78.90
69595;DHT22;56800;52.142;5.364;2023-02-24T17:56:24;6.40;79.00
69595;DHT22;56800;52.142;5.364;2023-02-24T17:58:50;6.40;79.10
69595;DHT22;56800;52.142;5.364;2023-02-24T18:01:20;6.40;79.10
69595;DHT22;56800;52.142;5.364;2023-02-24T18:03:47;6.40;79.10
69595;DHT22;56800;52.142;5.364;2023-02-24T18:06:14;6.40;79.10
69595;DHT22;56800;52.142;5.364;2023-02-24T18:08:41;6.40;79.10
69595;DHT22;56800;52.142;5.364;2023-02-24T18:11:10;6.40;79.10